sensor_id;sensor_type;location;lat;lon;timestamp;temperature;humidity
43858;DHT22;29507;51.284;5.758;2023-05-19T00:01:30;7.90;99.90
43858;DHT22;29507;51.284;5.758;2023-05-19T00:03:57;7.80;99.90
43858;DHT22;29507;51.284;5.758;2023-05-19T00:06:28;7.80;99.90
43858;DHT22;29507;51.284;5.758;2023-05-19T00:11:24;7.60;99.90
43858;DHT22;29507;51.284;5.758;2023-05-19T00:13:52;7.60;99.90
43858;DHT22;29507;51.284;5.758;2023-05-19T00:16:18;7.60;99.90
43858;DHT22;29507;51.284;5.758;2023-05-19T00:18:44;7.60;99.90
43858;DHT22;29507;51.284;5.758;2023-05-19T00:21:11;7.70;99.90
43858;DHT22;29507;51.284;5.758;2023-05-19T00:23:37;7.60;99.90
43858;DHT22;29507;51.284;5.758;2023-05-19T00:26:03;7.60;99.90
43858;DHT22;29507;51.284;5.758;2023-05-19T00:28:28;7.60;99.90
43858;DHT22;29507;51.284;5.758;2023-05-19T00:30:54;7.50;99.90
43858;DHT22;29507;51.284;5.758;2023-05-19T00:33:20;7.60;99.90
43858;DHT22;29507;51.284;5.758;2023-05-19T00:35:46;7.50;99.90
43858;DHT22;29507;51.284;5.758;2023-05-19T00:38:11;7.60;99.90
43858;DHT22;29507;51.284;5.758;2023-05-19T00:40:37;7.60;99.90
43858;DHT22;29507;51.284;5.758;2023-05-19T00:43:02;7.40;99.90
43858;DHT22;29507;51.284;5.758;2023-05-19T00:45:30;7.40;99.90
43858;DHT22;29507;51.284;5.758;2023-05-19T00:47:55;7.40;99.90
43858;DHT22;29507;51.284;5.758;2023-05-19T00:50:22;7.30;99.90
43858;DHT22;29507;51.284;5.758;2023-05-19T00:52:49;7.30;99.90
43858;DHT22;29507;51.284;5.758;2023-05-19T00:55:15;7.30;99.90
43858;DHT22;29507;51.284;5.758;2023-05-19T00:57:42;7.30;99.90
43858;DHT22;29507;51.284;5.758;2023-05-19T01:00:08;7.30;99.90
43858;DHT22;29507;51.284;5.758;2023-05-19T01:02:35;7.30;99.90
43858;DHT22;29507;51.284;5.758;2023-05-19T01:05:02;7.30;99.90
43858;DHT22;29507;51.284;5.758;2023-05-19T01:07:28;7.30;99.90
43858;DHT22;29507;51.284;5.758;2023-05-19T01:09:55;7.30;99.90
43858;DHT22;29507;51.284;5.758;2023-05-19T01:12:20;7.30;99.90
43858;DHT22;29507;51.284;5.758;2023-05-19T01:14:46;7.20;99.90
43858;DHT22;29507;51.284;5.758;2023-05-19T01:17:39;7.20;99.90
43858;DHT22;29507;51.284;5.758;2023-05-19T01:22:47;7.00;99.90
43858;DHT22;29507;51.284;5.758;2023-05-19T01:25:24;6.90;99.90
43858;DHT22;29507;51.284;5.758;2023-05-19T01:30:32;6.80;99.90
43858;DHT22;29507;51.284;5.758;2023-05-19T01:33:05;6.90;99.90
43858;DHT22;29507;51.284;5.758;2023-05-19T01:35:34;6.80;99.90
43858;DHT22;29507;51.284;5.758;2023-05-19T01:38:00;6.80;99.90
43858;DHT22;29507;51.284;5.758;2023-05-19T01:40:27;6.80;99.90
43858;DHT22;29507;51.284;5.758;2023-05-19T01:42:56;6.80;99.90
43858;DHT22;29507;51.284;5.758;2023-05-19T01:45:22;6.80;99.90
43858;DHT22;29507;51.284;5.758;2023-05-19T01:47:51;6.80;99.90
43858;DHT22;29507;51.284;5.758;2023-05-19T01:50:18;6.80;99.90
43858;DHT22;29507;51.284;5.758;2023-05-19T01:52:43;6.80;99.90
43858;DHT22;29507;51.284;5.758;2023-05-19T01:55:09;6.80;99.90
43858;DHT22;29507;51.284;5.758;2023-05-19T02:00:43;6.80;99.90
43858;DHT22;29507;51.284;5.758;2023-05-19T02:12:03;6.90;99.90
43858;DHT22;29507;51.284;5.758;2023-05-19T02:14:38;6.80;99.90
43858;DHT22;29507;51.284;5.758;2023-05-19T02:17:04;6.80;99.90
43858;DHT22;29507;51.284;5.758;2023-05-19T02:19:33;6.80;99.90
43858;DHT22;29507;51.284;5.758;2023-05-19T02:21:59;6.80;99.90
43858;DHT22;29507;51.284;5.758;2023-05-19T02:24:25;6.80;99.90
43858;DHT22;29507;51.284;5.758;2023-05-19T02:26:51;6.70;99.90
43858;DHT22;29507;51.284;5.758;2023-05-19T02:29:18;6.70;99.90
43858;DHT22;29507;51.284;5.758;2023-05-19T02:31:44;6.60;99.90
43858;DHT22;29507;51.284;5.758;2023-05-19T02:34:09;6.60;99.90
43858;DHT22;29507;51.284;5.758;2023-05-19T02:36:37;6.50;99.90
43858;DHT22;29507;51.284;5.758;2023-05-19T02:39:03;6.50;99.90
43858;DHT22;29507;51.284;5.758;2023-05-19T02:41:29;6.50;99.90
43858;DHT22;29507;51.284;5.758;2023-05-19T02:43:55;6.50;99.90
43858;DHT22;29507;51.284;5.758;2023-05-19T02:46:20;6.60;99.90
43858;DHT22;29507;51.284;5.758;2023-05-19T02:48:46;6.50;99.90
43858;DHT22;29507;51.284;5.758;2023-05-19T02:51:11;6.50;99.90
43858;DHT22;29507;51.284;5.758;2023-05-19T02:53:37;6.40;99.90
43858;DHT22;29507;51.284;5.758;2023-05-19T02:56:03;6.40;99.90
43858;DHT22;29507;51.284;5.758;2023-05-19T02:58:28;6.40;99.90
43858;DHT22;29507;51.284;5.758;2023-05-19T03:00:55;6.40;99.90
43858;DHT22;29507;51.284;5.758;2023-05-19T03:03:20;6.40;99.90
43858;DHT22;29507;51.284;5.758;2023-05-19T03:05:46;6.40;99.90
43858;DHT22;29507;51.284;5.758;2023-05-19T03:08:12;6.40;99.90
43858;DHT22;29507;51.284;5.758;2023-05-19T03:10:37;6.40;99.90
43858;DHT22;29507;51.284;5.758;2023-05-19T03:13:03;6.40;99.90
43858;DHT22;29507;51.284;5.758;2023-05-19T03:15:28;6.40;99.90
43858;DHT22;29507;51.284;5.758;2023-05-19T03:17:55;6.40;99.90
43858;DHT22;29507;51.284;5.758;2023-05-19T03:20:20;6.40;99.90
43858;DHT22;29507;51.284;5.758;2023-05-19T03:22:46;6.30;99.90
43858;DHT22;29507;51.284;5.758;2023-05-19T03:25:11;6.30;99.90
43858;DHT22;29507;51.284;5.758;2023-05-19T03:27:37;6.30;99.90
43858;DHT22;29507;51.284;5.758;2023-05-19T03:30:03;6.30;99.90
43858;DHT22;29507;51.284;5.758;2023-05-19T03:32:29;6.10;99.90
43858;DHT22;29507;51.284;5.758;2023-05-19T03:34:56;6.10;99.90
43858;DHT22;29507;51.284;5.758;2023-05-19T03:37:22;6.10;99.90
43858;DHT22;29507;51.284;5.758;2023-05-19T03:39:47;6.10;99.90
43858;DHT22;29507;51.284;5.758;2023-05-19T03:42:13;6.10;99.90
43858;DHT22;29507;51.284;5.758;2023-05-19T03:44:38;6.10;99.90
43858;DHT22;29507;51.284;5.758;2023-05-19T03:47:04;6.10;99.90
43858;DHT22;29507;51.284;5.758;2023-05-19T03:49:30;6.10;99.90
43858;DHT22;29507;51.284;5.758;2023-05-19T03:51:55;6.10;99.90
43858;DHT22;29507;51.284;5.758;2023-05-19T03:54:21;6.10;99.90
43858;DHT22;29507;51.284;5.758;2023-05-19T03:56:46;6.10;99.90
43858;DHT22;29507;51.284;5.758;2023-05-19T03:59:12;6.10;99.90
43858;DHT22;29507;51.284;5.758;2023-05-19T04:01:38;6.10;99.90
43858;DHT22;29507;51.284;5.758;2023-05-19T04:04:03;6.20;99.90
43858;DHT22;29507;51.284;5.758;2023-05-19T04:06:29;6.20;99.90
43858;DHT22;29507;51.284;5.758;2023-05-19T04:08:55;6.30;99.90
43858;DHT22;29507;51.284;5.758;2023-05-19T04:11:21;6.30;99.90
43858;DHT22;29507;51.284;5.758;2023-05-19T04:13:46;6.40;99.90
43858;DHT22;29507;51.284;5.758;2023-05-19T04:16:12;6.40;99.90
43858;DHT22;29507;51.284;5.758;2023-05-19T04:18:38;6.30;99.90
43858;DHT22;29507;51.284;5.758;2023-05-19T04:21:04;6.40;99.90
43858;DHT22;29507;51.284;5.758;2023-05-19T04:23:29;6.40;99.90
43858;DHT22;29507;51.284;5.758;2023-05-19T04:25:56;6.30;99.90
43858;DHT22;29507;51.284;5.758;2023-05-19T04:28:22;6.40;99.90
43858;DHT22;29507;51.284;5.758;2023-05-19T04:30:48;6.30;99.90
43858;DHT22;29507;51.284;5.758;2023-05-19T04:33:15;6.40;99.90
43858;DHT22;29507;51.284;5.758;2023-05-19T04:35:40;6.40;99.90
43858;DHT22;29507;51.284;5.758;2023-05-19T04:38:08;6.40;99.90
43858;DHT22;29507;51.284;5.758;2023-05-19T04:40:34;6.50;99.90
43858;DHT22;29507;51.284;5.758;2023-05-19T04:43:00;6.60;99.90
43858;DHT22;29507;51.284;5.758;2023-05-19T04:45:26;6.60;99.90
43858;DHT22;29507;51.284;5.758;2023-05-19T04:47:52;6.70;99.90
43858;DHT22;29507;51.284;5.758;2023-05-19T04:50:22;6.80;99.90
43858;DHT22;29507;51.284;5.758;2023-05-19T04:52:48;6.90;99.90
43858;DHT22;29507;51.284;5.758;2023-05-19T04:55:13;7.00;99.90
43858;DHT22;29507;51.284;5.758;2023-05-19T04:57:39;7.10;99.90
43858;DHT22;29507;51.284;5.758;2023-05-19T05:00:05;7.10;99.90
43858;DHT22;29507;51.284;5.758;2023-05-19T05:02:33;7.20;99.90
43858;DHT22;29507;51.284;5.758;2023-05-19T05:04:59;7.30;99.90
43858;DHT22;29507;51.284;5.758;2023-05-19T05:07:24;7.40;99.90
43858;DHT22;29507;51.284;5.758;2023-05-19T05:09:50;7.40;99.90
43858;DHT22;29507;51.284;5.758;2023-05-19T05:12:19;7.50;99.90
43858;DHT22;29507;51.284;5.758;2023-05-19T05:14:45;7.50;99.90
43858;DHT22;29507;51.284;5.758;2023-05-19T05:17:11;7.60;99.90
43858;DHT22;29507;51.284;5.758;2023-05-19T05:19:38;7.80;99.90
43858;DHT22;29507;51.284;5.758;2023-05-19T05:22:04;7.90;99.90
43858;DHT22;29507;51.284;5.758;2023-05-19T05:24:31;8.10;99.90
43858;DHT22;29507;51.284;5.758;2023-05-19T05:26:57;8.20;99.90
43858;DHT22;29507;51.284;5.758;2023-05-19T05:29:23;8.40;99.90
43858;DHT22;29507;51.284;5.758;2023-05-19T05:31:49;8.50;99.90
43858;DHT22;29507;51.284;5.758;2023-05-19T05:34:15;8.70;99.90
43858;DHT22;29507;51.284;5.758;2023-05-19T05:36:40;8.70;99.90
43858;DHT22;29507;51.284;5.758;2023-05-19T05:39:06;8.80;99.90
43858;DHT22;29507;51.284;5.758;2023-05-19T05:41:32;8.90;99.90
43858;DHT22;29507;51.284;5.758;2023-05-19T05:44:03;9.10;99.90
43858;DHT22;29507;51.284;5.758;2023-05-19T05:46:29;9.80;99.90
43858;DHT22;29507;51.284;5.758;2023-05-19T05:48:55;10.60;99.90
43858;DHT22;29507;51.284;5.758;2023-05-19T05:51:21;11.40;99.90
43858;DHT22;29507;51.284;5.758;2023-05-19T05:53:52;11.60;99.90
43858;DHT22;29507;51.284;5.758;2023-05-19T05:56:18;11.90;99.90
43858;DHT22;29507;51.284;5.758;2023-05-19T05:58:44;12.30;99.90
43858;DHT22;29507;51.284;5.758;2023-05-19T06:01:10;13.20;99.90
43858;DHT22;29507;51.284;5.758;2023-05-19T06:03:42;13.90;99.90
43858;DHT22;29507;51.284;5.758;2023-05-19T06:06:10;14.50;99.90
43858;DHT22;29507;51.284;5.758;2023-05-19T06:08:36;14.70;99.90
43858;DHT22;29507;51.284;5.758;2023-05-19T06:11:02;15.00;99.90
43858;DHT22;29507;51.284;5.758;2023-05-19T06:13:36;14.90;99.70
43858;DHT22;29507;51.284;5.758;2023-05-19T06:16:01;15.10;99.10
43858;DHT22;29507;51.284;5.758;2023-05-19T06:18:28;15.20;98.10
43858;DHT22;29507;51.284;5.758;2023-05-19T06:20:53;15.30;97.90
43858;DHT22;29507;51.284;5.758;2023-05-19T06:23:19;15.40;97.50
43858;DHT22;29507;51.284;5.758;2023-05-19T06:25:45;15.70;97.10
43858;DHT22;29507;51.284;5.758;2023-05-19T06:28:11;16.10;96.50
43858;DHT22;29507;51.284;5.758;2023-05-19T06:30:36;16.20;95.20
43858;DHT22;29507;51.284;5.758;2023-05-19T06:33:02;16.20;94.60
43858;DHT22;29507;51.284;5.758;2023-05-19T06:35:29;16.30;95.00
43858;DHT22;29507;51.284;5.758;2023-05-19T06:37:54;16.60;94.50
43858;DHT22;29507;51.284;5.758;2023-05-19T06:40:21;16.80;93.80
43858;DHT22;29507;51.284;5.758;2023-05-19T06:42:47;16.70;93.40
43858;DHT22;29507;51.284;5.758;2023-05-19T06:45:12;16.60;93.10
43858;DHT22;29507;51.284;5.758;2023-05-19T06:47:38;16.50;94.10
43858;DHT22;29507;51.284;5.758;2023-05-19T06:50:07;16.60;93.50
43858;DHT22;29507;51.284;5.758;2023-05-19T06:52:33;16.70;93.00
43858;DHT22;29507;51.284;5.758;2023-05-19T06:54:58;16.70;93.10
43858;DHT22;29507;51.284;5.758;2023-05-19T06:57:24;16.70;92.60
43858;DHT22;29507;51.284;5.758;2023-05-19T06:59:50;16.60;92.30
43858;DHT22;29507;51.284;5.758;2023-05-19T07:02:15;16.70;92.50
43858;DHT22;29507;51.284;5.758;2023-05-19T07:04:41;17.00;92.20
43858;DHT22;29507;51.284;5.758;2023-05-19T07:07:07;17.40;91.80
43858;DHT22;29507;51.284;5.758;2023-05-19T07:09:33;17.60;90.90
43858;DHT22;29507;51.284;5.758;2023-05-19T07:11:58;17.70;90.50
43858;DHT22;29507;51.284;5.758;2023-05-19T07:14:25;17.50;90.30
43858;DHT22;29507;51.284;5.758;2023-05-19T07:16:51;17.60;90.40
43858;DHT22;29507;51.284;5.758;2023-05-19T07:19:17;17.60;90.10
43858;DHT22;29507;51.284;5.758;2023-05-19T07:21:46;17.60;89.50
43858;DHT22;29507;51.284;5.758;2023-05-19T07:24:12;17.80;88.60
43858;DHT22;29507;51.284;5.758;2023-05-19T07:26:38;18.10;90.10
43858;DHT22;29507;51.284;5.758;2023-05-19T07:29:03;18.40;88.90
43858;DHT22;29507;51.284;5.758;2023-05-19T07:31:29;18.60;85.70
43858;DHT22;29507;51.284;5.758;2023-05-19T07:33:56;18.50;85.70
43858;DHT22;29507;51.284;5.758;2023-05-19T07:36:22;18.60;85.80
43858;DHT22;29507;51.284;5.758;2023-05-19T07:38:47;18.80;86.30
43858;DHT22;29507;51.284;5.758;2023-05-19T07:41:13;18.80;85.30
43858;DHT22;29507;51.284;5.758;2023-05-19T07:43:39;19.00;84.50
43858;DHT22;29507;51.284;5.758;2023-05-19T07:46:04;19.10;84.00
43858;DHT22;29507;51.284;5.758;2023-05-19T07:48:30;19.20;82.80
43858;DHT22;29507;51.284;5.758;2023-05-19T07:50:56;19.40;80.70
43858;DHT22;29507;51.284;5.758;2023-05-19T07:53:22;19.50;80.50
43858;DHT22;29507;51.284;5.758;2023-05-19T07:55:48;19.60;81.60
43858;DHT22;29507;51.284;5.758;2023-05-19T07:58:14;19.80;80.00
43858;DHT22;29507;51.284;5.758;2023-05-19T08:00:40;19.70;78.80
43858;DHT22;29507;51.284;5.758;2023-05-19T08:03:08;19.80;78.10
43858;DHT22;29507;51.284;5.758;2023-05-19T08:05:34;19.80;79.10
43858;DHT22;29507;51.284;5.758;2023-05-19T08:08:00;19.70;79.50
43858;DHT22;29507;51.284;5.758;2023-05-19T08:10:25;19.90;78.50
43858;DHT22;29507;51.284;5.758;2023-05-19T08:12:51;20.10;77.70
43858;DHT22;29507;51.284;5.758;2023-05-19T08:15:16;20.00;76.70
43858;DHT22;29507;51.284;5.758;2023-05-19T08:17:43;20.10;74.60
43858;DHT22;29507;51.284;5.758;2023-05-19T08:20:09;20.10;73.50
43858;DHT22;29507;51.284;5.758;2023-05-19T08:22:36;20.10;74.80
43858;DHT22;29507;51.284;5.758;2023-05-19T08:25:01;20.20;74.20
43858;DHT22;29507;51.284;5.758;2023-05-19T08:27:31;20.40;74.70
43858;DHT22;29507;51.284;5.758;2023-05-19T08:29:56;20.80;72.80
43858;DHT22;29507;51.284;5.758;2023-05-19T08:32:22;21.10;70.00
43858;DHT22;29507;51.284;5.758;2023-05-19T08:34:48;20.90;71.00
43858;DHT22;29507;51.284;5.758;2023-05-19T08:37:14;20.90;70.70
43858;DHT22;29507;51.284;5.758;2023-05-19T08:39:40;21.00;71.60
43858;DHT22;29507;51.284;5.758;2023-05-19T08:42:06;21.50;71.60
43858;DHT22;29507;51.284;5.758;2023-05-19T08:44:35;21.50;70.60
43858;DHT22;29507;51.284;5.758;2023-05-19T08:47:02;21.60;68.00
43858;DHT22;29507;51.284;5.758;2023-05-19T08:49:32;21.70;70.10
43858;DHT22;29507;51.284;5.758;2023-05-19T08:55:05;21.80;64.40
43858;DHT22;29507;51.284;5.758;2023-05-19T08:57:34;21.70;64.50
43858;DHT22;29507;51.284;5.758;2023-05-19T09:00:02;21.80;64.50
43858;DHT22;29507;51.284;5.758;2023-05-19T09:02:30;21.90;62.90
43858;DHT22;29507;51.284;5.758;2023-05-19T09:04:56;21.90;63.00
43858;DHT22;29507;51.284;5.758;2023-05-19T09:07:22;21.80;63.10
43858;DHT22;29507;51.284;5.758;2023-05-19T09:09:49;21.80;62.80
43858;DHT22;29507;51.284;5.758;2023-05-19T09:12:15;21.90;62.30
43858;DHT22;29507;51.284;5.758;2023-05-19T09:14:41;22.20;61.10
43858;DHT22;29507;51.284;5.758;2023-05-19T09:17:06;22.50;61.00
43858;DHT22;29507;51.284;5.758;2023-05-19T09:19:32;22.60;60.80
43858;DHT22;29507;51.284;5.758;2023-05-19T09:22:00;22.90;61.80
43858;DHT22;29507;51.284;5.758;2023-05-19T09:24:29;22.70;60.10
43858;DHT22;29507;51.284;5.758;2023-05-19T09:26:55;22.60;62.30
43858;DHT22;29507;51.284;5.758;2023-05-19T09:29:21;22.60;62.40
43858;DHT22;29507;51.284;5.758;2023-05-19T09:31:47;22.80;62.00
43858;DHT22;29507;51.284;5.758;2023-05-19T09:34:14;22.90;60.40
43858;DHT22;29507;51.284;5.758;2023-05-19T09:36:41;22.70;60.00
43858;DHT22;29507;51.284;5.758;2023-05-19T09:39:14;22.70;60.50
43858;DHT22;29507;51.284;5.758;2023-05-19T09:41:40;23.00;61.70
43858;DHT22;29507;51.284;5.758;2023-05-19T09:44:06;22.90;60.60
43858;DHT22;29507;51.284;5.758;2023-05-19T09:46:32;23.00;59.00
43858;DHT22;29507;51.284;5.758;2023-05-19T09:49:08;23.10;59.20
43858;DHT22;29507;51.284;5.758;2023-05-19T09:51:40;23.00;58.50
43858;DHT22;29507;51.284;5.758;2023-05-19T09:54:06;22.70;58.20
43858;DHT22;29507;51.284;5.758;2023-05-19T09:56:35;22.50;59.80
43858;DHT22;29507;51.284;5.758;2023-05-19T09:59:02;22.80;60.70
43858;DHT22;29507;51.284;5.758;2023-05-19T10:01:29;23.20;61.20
43858;DHT22;29507;51.284;5.758;2023-05-19T10:03:56;23.40;57.90
43858;DHT22;29507;51.284;5.758;2023-05-19T10:06:22;23.30;58.70
43858;DHT22;29507;51.284;5.758;2023-05-19T10:08:49;23.40;58.90
43858;DHT22;29507;51.284;5.758;2023-05-19T10:11:16;23.30;57.40
43858;DHT22;29507;51.284;5.758;2023-05-19T10:13:44;23.50;58.70
43858;DHT22;29507;51.284;5.758;2023-05-19T10:16:11;23.80;58.50
43858;DHT22;29507;51.284;5.758;2023-05-19T10:18:38;24.10;57.10
43858;DHT22;29507;51.284;5.758;2023-05-19T10:21:06;24.20;57.60
43858;DHT22;29507;51.284;5.758;2023-05-19T10:23:33;23.90;57.40
43858;DHT22;29507;51.284;5.758;2023-05-19T10:25:59;23.70;57.30
43858;DHT22;29507;51.284;5.758;2023-05-19T10:28:36;23.60;56.60
43858;DHT22;29507;51.284;5.758;2023-05-19T10:31:06;23.60;57.10
43858;DHT22;29507;51.284;5.758;2023-05-19T10:39:36;24.60;57.80
43858;DHT22;29507;51.284;5.758;2023-05-19T10:41:40;24.50;58.30
43858;DHT22;29507;51.284;5.758;2023-05-19T10:46:41;23.60;56.90
43858;DHT22;29507;51.284;5.758;2023-05-19T10:49:07;23.80;57.80
43858;DHT22;29507;51.284;5.758;2023-05-19T10:51:33;24.00;57.00
43858;DHT22;29507;51.284;5.758;2023-05-19T10:54:07;24.20;56.80
43858;DHT22;29507;51.284;5.758;2023-05-19T10:56:33;24.40;57.40
43858;DHT22;29507;51.284;5.758;2023-05-19T10:59:06;24.40;56.40
43858;DHT22;29507;51.284;5.758;2023-05-19T11:01:35;24.20;56.40
43858;DHT22;29507;51.284;5.758;2023-05-19T11:04:07;24.40;58.30
43858;DHT22;29507;51.284;5.758;2023-05-19T11:06:38;24.50;57.00
43858;DHT22;29507;51.284;5.758;2023-05-19T11:09:19;24.50;56.90
43858;DHT22;29507;51.284;5.758;2023-05-19T11:11:49;24.70;57.40
43858;DHT22;29507;51.284;5.758;2023-05-19T11:14:17;25.00;56.20
43858;DHT22;29507;51.284;5.758;2023-05-19T11:16:46;24.70;55.40
43858;DHT22;29507;51.284;5.758;2023-05-19T11:19:24;24.50;55.70
43858;DHT22;29507;51.284;5.758;2023-05-19T11:21:50;24.50;55.60
43858;DHT22;29507;51.284;5.758;2023-05-19T11:24:44;24.40;56.30
43858;DHT22;29507;51.284;5.758;2023-05-19T11:27:31;24.50;56.30
43858;DHT22;29507;51.284;5.758;2023-05-19T11:29:58;25.10;55.10
43858;DHT22;29507;51.284;5.758;2023-05-19T11:32:29;25.00;54.80
43858;DHT22;29507;51.284;5.758;2023-05-19T11:34:55;25.00;55.60
43858;DHT22;29507;51.284;5.758;2023-05-19T11:37:21;25.20;54.80
43858;DHT22;29507;51.284;5.758;2023-05-19T11:39:48;25.20;54.40
43858;DHT22;29507;51.284;5.758;2023-05-19T11:42:14;25.20;54.70
43858;DHT22;29507;51.284;5.758;2023-05-19T11:44:40;25.40;52.50
43858;DHT22;29507;51.284;5.758;2023-05-19T11:47:06;25.50;52.50
43858;DHT22;29507;51.284;5.758;2023-05-19T11:49:32;25.40;52.10
43858;DHT22;29507;51.284;5.758;2023-05-19T11:52:02;25.30;54.10
43858;DHT22;29507;51.284;5.758;2023-05-19T11:54:30;25.50;53.40
43858;DHT22;29507;51.284;5.758;2023-05-19T11:57:01;25.50;53.20
43858;DHT22;29507;51.284;5.758;2023-05-19T11:59:34;25.40;52.60
43858;DHT22;29507;51.284;5.758;2023-05-19T12:02:01;25.50;54.20
43858;DHT22;29507;51.284;5.758;2023-05-19T12:04:30;25.60;52.70
43858;DHT22;29507;51.284;5.758;2023-05-19T12:06:56;25.50;51.90
43858;DHT22;29507;51.284;5.758;2023-05-19T12:09:22;25.80;53.60
43858;DHT22;29507;51.284;5.758;2023-05-19T12:11:50;26.20;53.10
43858;DHT22;29507;51.284;5.758;2023-05-19T12:14:16;26.00;51.50
43858;DHT22;29507;51.284;5.758;2023-05-19T12:16:42;26.00;52.30
43858;DHT22;29507;51.284;5.758;2023-05-19T12:19:07;25.90;52.30
43858;DHT22;29507;51.284;5.758;2023-05-19T12:21:34;26.10;53.00
43858;DHT22;29507;51.284;5.758;2023-05-19T12:24:00;26.50;53.00
43858;DHT22;29507;51.284;5.758;2023-05-19T12:26:26;26.90;52.00
43858;DHT22;29507;51.284;5.758;2023-05-19T12:28:52;26.90;51.90
43858;DHT22;29507;51.284;5.758;2023-05-19T12:31:18;26.80;52.00
43858;DHT22;29507;51.284;5.758;2023-05-19T12:33:47;26.70;52.40
43858;DHT22;29507;51.284;5.758;2023-05-19T12:36:16;26.40;50.80
43858;DHT22;29507;51.284;5.758;2023-05-19T12:38:42;26.30;53.20
43858;DHT22;29507;51.284;5.758;2023-05-19T12:41:10;26.50;52.60
43858;DHT22;29507;51.284;5.758;2023-05-19T12:43:37;26.80;51.20
43858;DHT22;29507;51.284;5.758;2023-05-19T12:46:10;26.90;51.40
43858;DHT22;29507;51.284;5.758;2023-05-19T12:48:40;26.90;51.40
43858;DHT22;29507;51.284;5.758;2023-05-19T12:51:06;26.20;52.10
43858;DHT22;29507;51.284;5.758;2023-05-19T12:53:32;26.10;52.20
43858;DHT22;29507;51.284;5.758;2023-05-19T12:55:58;25.90;51.80
43858;DHT22;29507;51.284;5.758;2023-05-19T12:58:23;26.10;53.00
43858;DHT22;29507;51.284;5.758;2023-05-19T13:00:49;26.50;52.60
43858;DHT22;29507;51.284;5.758;2023-05-19T13:03:17;26.40;51.50
43858;DHT22;29507;51.284;5.758;2023-05-19T13:05:45;25.90;51.00
43858;DHT22;29507;51.284;5.758;2023-05-19T13:08:13;25.80;52.70
43858;DHT22;29507;51.284;5.758;2023-05-19T13:10:40;26.50;51.40
43858;DHT22;29507;51.284;5.758;2023-05-19T13:13:07;26.40;52.80
43858;DHT22;29507;51.284;5.758;2023-05-19T13:15:36;26.60;51.20
43858;DHT22;29507;51.284;5.758;2023-05-19T13:18:04;27.00;51.90
43858;DHT22;29507;51.284;5.758;2023-05-19T13:20:33;27.40;50.80
43858;DHT22;29507;51.284;5.758;2023-05-19T13:22:59;27.20;48.80
43858;DHT22;29507;51.284;5.758;2023-05-19T13:25:26;27.40;49.50
43858;DHT22;29507;51.284;5.758;2023-05-19T13:27:52;27.60;49.30
43858;DHT22;29507;51.284;5.758;2023-05-19T13:30:18;27.40;50.00
43858;DHT22;29507;51.284;5.758;2023-05-19T13:32:45;27.20;50.50
43858;DHT22;29507;51.284;5.758;2023-05-19T13:35:11;27.30;50.80
43858;DHT22;29507;51.284;5.758;2023-05-19T13:37:37;27.20;50.40
43858;DHT22;29507;51.284;5.758;2023-05-19T13:40:04;27.30;51.70
43858;DHT22;29507;51.284;5.758;2023-05-19T13:42:33;27.40;50.30
43858;DHT22;29507;51.284;5.758;2023-05-19T13:44:59;26.50;51.00
43858;DHT22;29507;51.284;5.758;2023-05-19T13:47:25;25.00;51.20
43858;DHT22;29507;51.284;5.758;2023-05-19T13:49:51;25.20;52.40
43858;DHT22;29507;51.284;5.758;2023-05-19T13:52:17;25.70;52.50
43858;DHT22;29507;51.284;5.758;2023-05-19T13:54:42;26.10;52.70
43858;DHT22;29507;51.284;5.758;2023-05-19T13:57:08;26.50;52.30
43858;DHT22;29507;51.284;5.758;2023-05-19T13:59:34;27.00;52.50
43858;DHT22;29507;51.284;5.758;2023-05-19T14:02:00;26.60;51.20
43858;DHT22;29507;51.284;5.758;2023-05-19T14:04:29;26.40;52.40
43858;DHT22;29507;51.284;5.758;2023-05-19T14:06:55;26.30;51.20
43858;DHT22;29507;51.284;5.758;2023-05-19T14:09:21;26.20;51.60
43858;DHT22;29507;51.284;5.758;2023-05-19T14:11:47;26.20;51.80
43858;DHT22;29507;51.284;5.758;2023-05-19T14:14:13;26.60;51.40
43858;DHT22;29507;51.284;5.758;2023-05-19T14:16:41;26.60;52.10
43858;DHT22;29507;51.284;5.758;2023-05-19T14:19:07;26.60;51.50
43858;DHT22;29507;51.284;5.758;2023-05-19T14:21:33;26.00;51.80
43858;DHT22;29507;51.284;5.758;2023-05-19T14:23:58;25.20;51.20
43858;DHT22;29507;51.284;5.758;2023-05-19T14:26:25;24.10;52.30
43858;DHT22;29507;51.284;5.758;2023-05-19T14:28:51;24.10;53.50
43858;DHT22;29507;51.284;5.758;2023-05-19T14:31:16;24.20;53.30
43858;DHT22;29507;51.284;5.758;2023-05-19T14:33:42;24.30;54.90
43858;DHT22;29507;51.284;5.758;2023-05-19T14:36:08;24.50;55.00
43858;DHT22;29507;51.284;5.758;2023-05-19T14:38:34;24.60;53.90
43858;DHT22;29507;51.284;5.758;2023-05-19T14:41:00;24.20;53.20
43858;DHT22;29507;51.284;5.758;2023-05-19T14:43:26;24.00;52.80
43858;DHT22;29507;51.284;5.758;2023-05-19T14:45:51;23.80;54.00
43858;DHT22;29507;51.284;5.758;2023-05-19T14:48:17;23.70;54.20
43858;DHT22;29507;51.284;5.758;2023-05-19T14:50:43;23.60;54.40
43858;DHT22;29507;51.284;5.758;2023-05-19T14:53:09;23.70;53.30
43858;DHT22;29507;51.284;5.758;2023-05-19T14:55:35;23.50;54.10
43858;DHT22;29507;51.284;5.758;2023-05-19T14:58:01;23.30;55.10
43858;DHT22;29507;51.284;5.758;2023-05-19T15:00:26;23.50;55.70
43858;DHT22;29507;51.284;5.758;2023-05-19T15:02:52;23.70;54.70
43858;DHT22;29507;51.284;5.758;2023-05-19T15:05:18;23.80;52.60
43858;DHT22;29507;51.284;5.758;2023-05-19T15:07:44;23.70;53.90
43858;DHT22;29507;51.284;5.758;2023-05-19T15:10:10;23.50;53.90
43858;DHT22;29507;51.284;5.758;2023-05-19T15:12:36;23.40;54.00
43858;DHT22;29507;51.284;5.758;2023-05-19T15:15:02;23.30;55.60
43858;DHT22;29507;51.284;5.758;2023-05-19T15:17:28;23.30;56.00
43858;DHT22;29507;51.284;5.758;2023-05-19T15:19:53;23.30;54.70
43858;DHT22;29507;51.284;5.758;2023-05-19T15:22:19;23.00;54.90
43858;DHT22;29507;51.284;5.758;2023-05-19T15:24:44;23.00;56.60
43858;DHT22;29507;51.284;5.758;2023-05-19T15:27:10;23.00;56.40
43858;DHT22;29507;51.284;5.758;2023-05-19T15:29:36;22.70;56.00
43858;DHT22;29507;51.284;5.758;2023-05-19T15:32:01;22.40;57.10
43858;DHT22;29507;51.284;5.758;2023-05-19T15:34:27;22.50;56.40
43858;DHT22;29507;51.284;5.758;2023-05-19T15:36:52;22.70;56.00
43858;DHT22;29507;51.284;5.758;2023-05-19T15:39:18;22.70;56.40
43858;DHT22;29507;51.284;5.758;2023-05-19T15:41:44;22.50;56.10
43858;DHT22;29507;51.284;5.758;2023-05-19T15:44:10;22.40;55.90
43858;DHT22;29507;51.284;5.758;2023-05-19T15:46:35;22.30;57.00
43858;DHT22;29507;51.284;5.758;2023-05-19T15:49:01;22.50;57.20
43858;DHT22;29507;51.284;5.758;2023-05-19T15:51:26;22.70;56.60
43858;DHT22;29507;51.284;5.758;2023-05-19T15:53:52;22.70;55.80
43858;DHT22;29507;51.284;5.758;2023-05-19T15:56:18;23.00;54.70
43858;DHT22;29507;51.284;5.758;2023-05-19T15:58:44;22.90;55.30
43858;DHT22;29507;51.284;5.758;2023-05-19T16:01:11;22.90;55.70
43858;DHT22;29507;51.284;5.758;2023-05-19T16:03:36;23.00;56.30